Time;durP1;ratioP1;P1;durP2;ratioP2;P2;SDS_P1;SDS_P2;PMS_P1;PMS_P2;Temp;Humidity;BMP_temperature;BMP_pressure;BME280_temperature;BME280_humidity;BME280_pressure;Samples;Min_cycle;Max_cycle;Signal;HPM_P1;HPM_P2
2021/03/03 00:01:12;;;;;;;33.15;20.65;;;6.70;86.80;;;;;;5011519;28;20374;-74
2021/03/03 00:03:37;;;;;;;30.25;20.60;;;6.70;86.90;;;;;;5010990;28;20038;-74
2021/03/03 00:06:03;;;;;;;29.13;18.87;;;6.70;86.80;;;;;;5011728;28;20114;-74
2021/03/03 00:08:29;;;;;;;27.40;18.10;;;6.60;86.60;;;;;;5011847;28;20050;-74
2021/03/03 00:10:55;;;;;;;28.42;18.45;;;6.60;86.40;;;;;;5011239;28;20069;-74
2021/03/03 00:13:20;;;;;;;30.25;19.55;;;6.50;86.30;;;;;;5011260;28;20451;-74
2021/03/03 00:15:46;;;;;;;29.85;20.42;;;6.50;86.60;;;;;;5011010;28;20034;-74
2021/03/03 00:18:12;;;;;;;31.55;20.95;;;6.40;86.60;;;;;;5011258;28;20469;-74
2021/03/03 00:20:37;;;;;;;33.08;20.50;;;6.40;87.20;;;;;;5011404;28;20102;-74
2021/03/03 00:23:04;;;;;;;37.97;20.83;;;6.40;87.60;;;;;;5010758;28;20041;-74
2021/03/03 00:25:30;;;;;;;29.77;21.10;;;6.40;87.80;;;;;;5011343;28;20042;-74
2021/03/03 00:27:56;;;;;;;35.92;21.48;;;6.40;87.70;;;;;;5010825;28;20037;-74
2021/03/03 00:30:22;;;;;;;36.10;22.75;;;6.40;87.80;;;;;;5009776;28;20042;-74
2021/03/03 00:32:48;;;;;;;35.63;21.33;;;6.40;88.00;;;;;;5011135;28;20109;-74
2021/03/03 00:35:14;;;;;;;34.33;21.77;;;6.40;88.20;;;;;;5010705;28;20454;-74
2021/03/03 00:37:39;;;;;;;34.53;22.45;;;6.40;88.10;;;;;;5010969;28;20057;-74
2021/03/03 00:40:07;;;;;;;41.17;23.33;;;6.40;88.20;;;;;;5011345;28;20462;-74
2021/03/03 00:42:32;;;;;;;33.20;21.55;;;6.30;88.20;;;;;;5011108;28;20042;-74
2021/03/03 00:44:58;;;;;;;37.42;22.48;;;6.30;88.50;;;;;;5011169;28;20044;-74
2021/03/03 00:47:24;;;;;;;36.55;22.63;;;6.30;88.60;;;;;;5010996;28;20046;-74
2021/03/03 00:49:50;;;;;;;38.88;24.33;;;6.30;88.80;;;;;;5010767;28;20081;-74
2021/03/03 00:52:15;;;;;;;43.60;23.88;;;6.30;88.70;;;;;;5010989;28;20343;-74
2021/03/03 00:54:43;;;;;;;39.13;22.92;;;6.30;88.90;;;;;;5010383;28;20092;-74
2021/03/03 00:57:08;;;;;;;39.47;23.83;;;6.20;88.80;;;;;;5010996;28;20060;-74
2021/03/03 00:59:34;;;;;;;36.95;22.38;;;6.20;89.10;;;;;;5010654;28;20030;-74
2021/03/03 01:01:59;;;;;;;44.00;23.88;;;6.20;89.30;;;;;;5010683;28;20052;-74
2021/03/03 01:04:25;;;;;;;41.50;24.02;;;6.10;89.30;;;;;;5010250;28;20493;-74
2021/03/03 01:06:51;;;;;;;40.05;24.25;;;6.10;89.50;;;;;;5010239;28;20135;-74
2021/03/03 01:09:17;;;;;;;44.13;23.75;;;6.10;89.60;;;;;;5010352;28;20062;-74
2021/03/03 01:11:42;;;;;;;33.28;22.10;;;6.10;89.70;;;;;;5010287;28;20069;-74
2021/03/03 01:14:08;;;;;;;42.88;23.73;;;6.10;90.00;;;;;;5010376;28;20091;-74
2021/03/03 01:16:34;;;;;;;49.55;24.98;;;6.10;89.90;;;;;;5010629;28;20046;-74
2021/03/03 01:19:00;;;;;;;39.08;23.20;;;6.10;90.00;;;;;;5010894;28;20046;-74
2021/03/03 01:21:25;;;;;;;41.85;25.50;;;6.00;90.10;;;;;;5010265;28;20038;-74
2021/03/03 01:23:51;;;;;;;41.80;23.33;;;6.10;90.20;;;;;;5009979;28;20064;-74
2021/03/03 01:26:16;;;;;;;40.65;24.88;;;6.00;90.10;;;;;;5010125;28;20045;-74
2021/03/03 01:28:42;;;;;;;38.80;24.05;;;6.00;90.10;;;;;;5010291;28;20049;-74
2021/03/03 01:31:08;;;;;;;44.40;24.77;;;6.00;90.10;;;;;;5010407;28;20046;-74
2021/03/03 01:33:34;;;;;;;42.22;24.35;;;6.00;90.20;;;;;;5010225;28;20045;-74
2021/03/03 01:36:00;;;;;;;40.35;23.92;;;5.90;90.10;;;;;;5010376;28;20038;-74
2021/03/03 01:38:26;;;;;;;41.05;25.80;;;5.90;90.10;;;;;;5011507;28;20484;-74
2021/03/03 01:40:52;;;;;;;39.50;22.67;;;5.90;90.30;;;;;;5012484;28;20042;-74
2021/03/03 01:43:18;;;;;;;45.28;24.73;;;5.80;90.20;;;;;;5013446;28;20111;-74
2021/03/03 01:45:44;;;;;;;39.63;26.00;;;5.80;90.30;;;;;;5013897;28;20066;-74
2021/03/03 01:48:10;;;;;;;45.33;24.88;;;5.70;90.40;;;;;;5013767;28;20049;-74
2021/03/03 01:50:40;;;;;;;42.47;24.48;;;5.80;90.60;;;;;;5013741;28;20046;-74
2021/03/03 01:53:07;;;;;;;45.38;25.85;;;5.70;90.60;;;;;;5013140;28;20034;-74
2021/03/03 01:55:32;;;;;;;42.42;25.80;;;5.70;90.60;;;;;;5013500;28;20170;-74
2021/03/03 01:57:58;;;;;;;44.53;24.02;;;5.70;90.60;;;;;;5012621;28;20479;-74
2021/03/03 02:00:24;;;;;;;39.67;24.15;;;5.80;90.60;;;;;;5013156;28;20121;-74
2021/03/03 02:02:50;;;;;;;40.80;23.35;;;5.90;90.60;;;;;;5013486;28;20076;-74
2021/03/03 02:05:16;;;;;;;39.33;23.95;;;5.80;90.50;;;;;;5011917;28;20079;-74
2021/03/03 02:08:16;;;;;;;42.17;23.85;;;5.80;90.50;;;;;;5013361;28;20081;-74
2021/03/03 02:10:58;;;;;;;45.97;23.27;;;5.80;90.40;;;;;;5013261;28;20049;-74
2021/03/03 02:13:29;;;;;;;41.90;23.80;;;5.70;90.40;;;;;;5013166;28;20435;-74
2021/03/03 02:15:57;;;;;;;40.40;23.95;;;5.70;90.40;;;;;;5012790;28;20037;-74
2021/03/03 02:18:25;;;;;;;39.35;22.88;;;5.70;90.50;;;;;;5013600;28;20050;-73
2021/03/03 02:21:30;;;;;;;37.58;23.02;;;5.60;90.50;;;;;;5012726;28;20477;-73
2021/03/03 02:24:11;;;;;;;41.55;22.92;;;5.60;90.40;;;;;;5013104;28;20073;-74
2021/03/03 02:26:38;;;;;;;39.55;21.80;;;5.60;90.50;;;;;;5013021;28;20439;-74
2021/03/03 02:29:08;;;;;;;39.38;23.05;;;5.60;90.50;;;;;;5012605;28;20674;-74
2021/03/03 02:31:35;;;;;;;38.65;21.13;;;5.60;90.40;;;;;;5012814;28;20046;-74
2021/03/03 02:34:03;;;;;;;44.20;23.58;;;5.50;90.40;;;;;;5012772;28;20137;-74
2021/03/03 02:36:29;;;;;;;38.78;22.77;;;5.50;90.40;;;;;;5012752;28;20467;-74
2021/03/03 02:38:56;;;;;;;34.22;22.42;;;5.50;90.40;;;;;;5013078;28;20034;-74
2021/03/03 02:41:22;;;;;;;37.35;21.40;;;5.40;90.40;;;;;;5013211;28;20493;-74
2021/03/03 02:43:49;;;;;;;35.85;21.25;;;5.40;90.40;;;;;;5012236;28;20061;-74
2021/03/03 02:46:15;;;;;;;39.60;21.98;;;5.40;90.30;;;;;;5012493;28;20473;-74
2021/03/03 02:48:43;;;;;;;35.22;19.85;;;5.40;90.40;;;;;;5012270;28;20049;-74
2021/03/03 02:51:09;;;;;;;35.30;21.70;;;5.30;90.30;;;;;;5012455;28;20087;-74
2021/03/03 02:53:35;;;;;;;37.65;21.08;;;5.20;90.30;;;;;;5012108;28;20034;-74
2021/03/03 02:56:00;;;;;;;32.20;20.38;;;5.20;90.30;;;;;;5012675;28;20041;-74
2021/03/03 02:58:26;;;;;;;37.95;21.73;;;5.20;90.30;;;;;;5012236;28;20053;-74
2021/03/03 03:00:54;;;;;;;33.58;20.30;;;5.10;90.20;;;;;;5012045;28;20069;-74
2021/03/03 03:03:28;;;;;;;36.60;21.90;;;5.10;90.30;;;;;;5012083;28;20073;-74
2021/03/03 03:06:34;;;;;;;31.17;19.17;;;5.10;90.30;;;;;;5012084;28;20038;-74
2021/03/03 03:09:07;;;;;;;34.63;20.92;;;5.10;90.30;;;;;;5012164;28;20046;-74
2021/03/03 03:11:37;;;;;;;29.92;19.77;;;5.00;90.50;;;;;;5011970;28;20042;-74
2021/03/03 03:14:11;;;;;;;40.10;22.15;;;5.00;90.50;;;;;;5012198;28;20042;-74
2021/03/03 03:16:38;;;;;;;;;;;5.00;90.60;;;;;;5012890;28;20041;-74
2021/03/03 03:19:09;;;;;;;36.42;20.38;;;4.90;90.60;;;;;;5011814;28;19955;-74
2021/03/03 03:21:38;;;;;;;33.83;20.45;;;4.90;90.60;;;;;;5011884;28;20092;-74
2021/03/03 03:24:05;;;;;;;39.67;22.52;;;4.90;90.60;;;;;;5011957;28;20083;-74
2021/03/03 03:26:35;;;;;;;35.80;20.52;;;4.90;90.60;;;;;;5012020;28;20034;-74
2021/03/03 03:29:01;;;;;;;31.58;19.55;;;4.80;90.70;;;;;;5012196;28;20046;-74
2021/03/03 03:31:27;;;;;;;39.63;21.77;;;4.90;90.70;;;;;;5012283;28;20069;-74
2021/03/03 03:33:54;;;;;;;34.20;20.48;;;4.80;90.70;;;;;;5011532;28;20069;-74
2021/03/03 03:36:20;;;;;;;37.08;21.40;;;4.80;90.70;;;;;;5011637;28;20127;-74
2021/03/03 03:38:46;;;;;;;38.60;22.15;;;4.80;90.80;;;;;;5011403;28;20044;-74
2021/03/03 03:41:14;;;;;;;41.13;22.95;;;4.80;90.70;;;;;;5011710;28;20116;-74
2021/03/03 03:43:40;;;;;;;40.33;21.92;;;4.80;90.70;;;;;;5011508;28;20042;-74
2021/03/03 03:46:08;;;;;;;35.80;21.25;;;4.70;90.60;;;;;;5011398;28;20071;-74
2021/03/03 03:48:37;;;;;;;38.25;21.85;;;4.70;90.60;;;;;;5011250;28;20141;-74
2021/03/03 03:51:07;;;;;;;40.03;22.95;;;4.70;90.60;;;;;;5010454;28;20044;-74
2021/03/03 03:53:34;;;;;;;42.60;24.42;;;4.70;90.70;;;;;;5011766;28;20037;-74
2021/03/03 03:56:00;;;;;;;43.97;24.10;;;4.70;90.70;;;;;;5011249;28;20049;-74
2021/03/03 03:58:26;;;;;;;44.97;25.63;;;4.70;90.70;;;;;;5011330;28;20482;-74
2021/03/03 04:00:52;;;;;;;40.10;25.02;;;4.70;90.70;;;;;;5011079;28;20053;-74
2021/03/03 04:03:18;;;;;;;42.63;24.13;;;4.70;90.80;;;;;;5010965;28;20034;-74
2021/03/03 04:05:44;;;;;;;40.67;23.08;;;4.70;90.80;;;;;;5011563;28;20037;-74
2021/03/03 04:08:09;;;;;;;40.55;24.35;;;4.70;90.90;;;;;;5011237;28;20095;-74
2021/03/03 04:10:35;;;;;;;42.22;23.38;;;4.60;90.80;;;;;;5011241;28;20068;-74
2021/03/03 04:13:01;;;;;;;38.17;22.58;;;4.60;90.70;;;;;;5011152;28;20045;-74
2021/03/03 04:15:27;;;;;;;39.03;22.05;;;4.60;90.80;;;;;;5011460;28;20543;-74
2021/03/03 04:17:53;;;;;;;35.33;21.35;;;4.60;90.80;;;;;;5011035;28;20144;-74
2021/03/03 04:20:20;;;;;;;38.85;22.65;;;4.60;90.80;;;;;;5011536;28;20041;-74
2021/03/03 04:22:46;;;;;;;39.75;21.75;;;4.60;90.80;;;;;;5010958;28;20500;-74
2021/03/03 04:25:14;;;;;;;37.78;21.92;;;4.60;90.70;;;;;;5011115;28;20116;-73
2021/03/03 04:27:40;;;;;;;36.40;23.15;;;4.50;90.80;;;;;;5010805;28;20074;-74
2021/03/03 04:30:09;;;;;;;37.72;22.38;;;4.50;90.80;;;;;;5011415;28;20501;-74
2021/03/03 04:32:34;;;;;;;36.03;20.23;;;4.60;90.90;;;;;;5011445;28;20038;-74
2021/03/03 04:35:01;;;;;;;34.28;21.95;;;4.60;90.90;;;;;;5011520;28;20147;-73
2021/03/03 04:37:26;;;;;;;40.03;22.25;;;4.50;90.90;;;;;;5010764;28;20511;-74
2021/03/03 04:39:52;;;;;;;32.72;21.60;;;4.50;90.80;;;;;;5010686;28;20474;-74
2021/03/03 04:42:18;;;;;;;37.03;21.70;;;4.50;90.90;;;;;;5010714;28;20095;-74
2021/03/03 04:44:44;;;;;;;37.97;22.13;;;4.50;90.90;;;;;;5010758;28;20040;-74
2021/03/03 04:47:10;;;;;;;40.13;22.35;;;4.50;90.80;;;;;;5010720;28;20045;-74
2021/03/03 04:49:35;;;;;;;33.35;20.95;;;4.50;90.90;;;;;;5010422;28;20042;-74
2021/03/03 04:52:02;;;;;;;34.45;20.85;;;4.50;90.80;;;;;;5010562;28;20363;-74
2021/03/03 04:54:28;;;;;;;32.53;19.75;;;4.50;90.80;;;;;;5010503;28;20069;-74
2021/03/03 04:56:54;;;;;;;35.42;21.70;;;4.50;90.80;;;;;;5010353;28;20073;-74
2021/03/03 04:59:19;;;;;;;32.92;20.10;;;4.50;90.80;;;;;;5010819;28;20060;-74
2021/03/03 05:01:45;;;;;;;35.70;21.77;;;4.50;90.90;;;;;;5010399;28;20091;-73
2021/03/03 05:04:11;;;;;;;34.85;19.83;;;4.50;90.90;;;;;;5010128;28;20405;-74
2021/03/03 05:06:36;;;;;;;32.95;20.92;;;4.50;90.90;;;;;;5010696;28;20387;-74
2021/03/03 05:09:02;;;;;;;38.40;21.67;;;4.50;90.90;;;;;;5011306;28;20398;-74
2021/03/03 05:11:28;;;;;;;33.17;20.08;;;4.50;90.90;;;;;;5010488;28;20405;-74
2021/03/03 05:13:53;;;;;;;35.17;21.17;;;4.50;90.90;;;;;;5011496;28;20038;-73
2021/03/03 05:16:19;;;;;;;32.58;19.70;;;4.40;90.80;;;;;;5013577;28;20038;-74
2021/03/03 05:18:45;;;;;;;33.03;18.95;;;4.40;90.80;;;;;;5014016;28;20137;-74
2021/03/03 05:21:11;;;;;;;36.85;20.55;;;4.40;90.80;;;;;;5013582;28;20069;-74
2021/03/03 05:23:37;;;;;;;34.60;20.92;;;4.40;91.20;;;;;;5013561;28;20091;-74
2021/03/03 05:26:04;;;;;;;31.70;19.67;;;4.40;90.80;;;;;;5014243;28;20119;-74
2021/03/03 05:28:33;;;;;;;36.80;21.65;;;4.40;90.80;;;;;;5012520;28;20091;-74
2021/03/03 05:30:59;;;;;;;32.55;19.80;;;4.40;90.80;;;;;;5013662;28;20081;-74
2021/03/03 05:33:27;;;;;;;32.65;19.02;;;4.40;90.90;;;;;;5013582;28;20073;-74
2021/03/03 05:35:55;;;;;;;33.42;21.33;;;4.30;90.70;;;;;;5013804;28;20042;-74
2021/03/03 05:38:21;;;;;;;37.38;20.13;;;4.30;90.70;;;;;;5013455;28;20144;-74
2021/03/03 05:40:48;;;;;;;33.63;21.08;;;4.30;90.80;;;;;;5013615;28;20467;-74
2021/03/03 05:43:15;;;;;;;36.92;21.35;;;4.30;90.80;;;;;;5013582;28;20118;-74
2021/03/03 05:45:46;;;;;;;33.65;20.92;;;4.30;90.80;;;;;;5013247;28;20066;-74
2021/03/03 05:48:32;;;;;;;37.25;21.00;;;4.30;90.80;;;;;;5013517;28;20046;-74
2021/03/03 05:51:04;;;;;;;33.90;20.92;;;4.30;90.70;;;;;;5011754;28;20045;-74
2021/03/03 05:53:30;;;;;;;30.75;19.45;;;4.20;90.70;;;;;;5013241;28;20073;-74
2021/03/03 05:56:06;;;;;;;41.13;22.48;;;4.20;90.70;;;;;;5013208;28;20042;-74
2021/03/03 05:58:34;;;;;;;32.28;20.48;;;4.20;90.60;;;;;;5013662;28;20388;-74
2021/03/03 06:01:03;;;;;;;34.55;21.77;;;4.20;90.70;;;;;;5013065;28;20034;-74
2021/03/03 06:03:29;;;;;;;31.48;20.20;;;4.20;90.70;;;;;;5012796;28;20074;-74
2021/03/03 06:05:56;;;;;;;35.22;20.70;;;4.20;90.70;;;;;;5013059;28;20065;-74
2021/03/03 06:08:25;;;;;;;31.98;20.83;;;4.20;90.60;;;;;;5013032;28;20384;-74
2021/03/03 06:10:51;;;;;;;30.92;20.02;;;4.20;90.60;;;;;;5013314;28;20080;-74
2021/03/03 06:13:18;;;;;;;30.10;18.38;;;4.10;90.50;;;;;;5012630;28;20071;-73
2021/03/03 06:15:43;;;;;;;31.33;19.27;;;4.10;90.40;;;;;;5012935;28;20052;-74
2021/03/03 06:18:14;;;;;;;28.38;17.42;;;4.10;90.40;;;;;;5013354;28;20050;-73
2021/03/03 06:20:45;;;;;;;30.50;19.38;;;4.10;90.30;;;;;;5012948;28;20056;-74
2021/03/03 06:23:20;;;;;;;33.53;17.85;;;4.00;90.30;;;;;;5012499;28;20044;-74
2021/03/03 06:25:49;;;;;;;30.30;18.13;;;4.00;90.20;;;;;;5012158;28;20034;-74
2021/03/03 06:28:36;;;;;;;27.58;18.23;;;4.00;90.10;;;;;;5013403;28;20470;-74
2021/03/03 06:31:25;;;;;;;32.17;18.33;;;4.00;90.40;;;;;;5013244;28;20048;-74
2021/03/03 06:33:52;;;;;;;33.75;19.05;;;4.00;90.50;;;;;;5012900;28;20099;-73
2021/03/03 06:36:28;;;;;;;26.33;17.00;;;4.00;90.40;;;;;;5012600;28;20053;-74
2021/03/03 06:38:54;;;;;;;30.88;19.23;;;4.00;90.40;;;;;;5012484;28;20042;-74
2021/03/03 06:41:20;;;;;;;32.75;18.20;;;4.00;90.40;;;;;;5012845;28;20091;-73
2021/03/03 06:43:56;;;;;;;29.38;17.63;;;3.90;90.40;;;;;;5012622;28;20041;-74
2021/03/03 06:46:23;;;;;;;33.42;20.05;;;4.00;90.40;;;;;;5012665;28;20118;-74
2021/03/03 06:48:49;;;;;;;30.17;19.20;;;4.00;90.40;;;;;;5012395;28;20038;-74
2021/03/03 06:51:25;;;;;;;29.40;18.13;;;4.00;90.50;;;;;;5012895;28;20044;-73
2021/03/03 06:53:51;;;;;;;36.83;20.73;;;4.00;90.40;;;;;;5012165;28;20038;-74
2021/03/03 06:56:47;;;;;;;29.60;17.48;;;4.10;90.40;;;;;;5012643;28;20038;-74
2021/03/03 06:59:21;;;;;;;29.15;17.98;;;4.10;90.40;;;;;;5016572;28;20056;-74
2021/03/03 07:01:47;;;;;;;;;;;4.10;90.40;;;;;;5011608;28;20126;-72
2021/03/03 07:04:24;;;;;;;33.35;19.20;;;4.20;90.50;;;;;;5011706;28;19921;-72
2021/03/03 07:06:51;;;;;;;31.75;19.17;;;4.20;90.40;;;;;;5011930;28;20041;-72
2021/03/03 07:09:17;;;;;;;33.78;19.73;;;4.30;90.40;;;;;;5012882;28;20037;-72
2021/03/03 07:11:43;;;;;;;33.97;20.52;;;4.30;90.30;;;;;;5012190;28;20063;-73
2021/03/03 07:14:21;;;;;;;35.28;20.15;;;4.40;90.20;;;;;;5011768;28;20542;-74
2021/03/03 07:17:13;;;;;;;32.10;18.83;;;4.40;90.10;;;;;;5011885;28;20129;-74
2021/03/03 07:19:44;;;;;;;29.00;18.55;;;4.50;90.00;;;;;;5012469;28;20076;-73
2021/03/03 07:22:37;;;;;;;34.63;19.88;;;4.60;89.90;;;;;;5011823;28;20439;-72
2021/03/03 07:25:09;;;;;;;29.02;19.42;;;4.60;89.70;;;;;;5013384;28;20498;-73
2021/03/03 07:27:36;;;;;;;28.95;18.77;;;4.70;89.70;;;;;;5011788;28;20034;-73
2021/03/03 07:30:08;;;;;;;32.13;19.08;;;4.70;89.50;;;;;;5011631;28;20049;-73
2021/03/03 07:32:34;;;;;;;28.77;18.70;;;4.80;89.40;;;;;;4994467;28;20053;-74
2021/03/03 07:35:00;;;;;;;32.60;19.00;;;4.90;89.30;;;;;;5011980;28;20452;-73
2021/03/03 07:37:32;;;;;;;31.77;20.48;;;5.00;89.00;;;;;;5010672;28;20049;-73
2021/03/03 07:40:01;;;;;;;31.25;19.90;;;5.10;88.60;;;;;;5011401;28;20099;-73
2021/03/03 07:42:30;;;;;;;32.20;19.83;;;5.10;88.30;;;;;;5011709;28;20034;-73
2021/03/03 07:45:01;;;;;;;30.33;18.33;;;5.20;88.20;;;;;;5011769;28;20073;-74
2021/03/03 07:47:33;;;;;;;32.97;19.60;;;5.20;88.00;;;;;;5011598;28;20042;-73
2021/03/03 07:50:17;;;;;;;31.98;19.40;;;5.20;87.80;;;;;;5011366;28;20038;-73
2021/03/03 07:52:50;;;;;;;31.00;19.98;;;5.20;88.00;;;;;;5011391;28;20041;-73
2021/03/03 07:55:16;;;;;;;34.03;19.52;;;5.20;88.00;;;;;;5011447;28;20067;-73
2021/03/03 07:57:46;;;;;;;29.98;19.38;;;5.30;88.20;;;;;;5011862;28;20038;-73
2021/03/03 08:00:18;;;;;;;36.53;21.13;;;5.40;88.10;;;;;;5012245;28;20086;-73
2021/03/03 08:02:49;;;;;;;36.97;22.85;;;5.60;88.60;;;;;;5011080;28;20049;-73
2021/03/03 08:05:28;;;;;;;39.10;24.45;;;5.70;87.80;;;;;;5011420;28;20045;-73
2021/03/03 08:08:22;;;;;;;43.60;26.00;;;6.00;88.20;;;;;;5011484;28;20049;-73
2021/03/03 08:10:49;;;;;;;38.30;26.55;;;6.20;88.10;;;;;;5011493;28;20042;-73
2021/03/03 08:13:16;;;;;;;42.42;26.30;;;6.30;88.00;;;;;;5010869;28;20046;-73
2021/03/03 08:15:46;;;;;;;45.50;27.40;;;6.40;87.90;;;;;;5010957;28;20099;-73
2021/03/03 08:18:15;;;;;;;44.88;28.98;;;6.40;87.70;;;;;;5011655;28;20486;-73
2021/03/03 08:20:42;;;;;;;50.63;30.60;;;6.40;88.00;;;;;;5011714;28;20061;-74
2021/03/03 08:23:08;;;;;;;49.15;30.77;;;6.40;88.50;;;;;;5011111;28;20038;-73
2021/03/03 08:25:48;;;;;;;54.08;32.53;;;6.50;88.80;;;;;;5010888;28;20103;-73
2021/03/03 08:28:24;;;;;;;54.40;34.17;;;6.50;89.10;;;;;;5011533;28;20083;-73
2021/03/03 08:31:10;;;;;;;54.22;32.78;;;6.50;89.30;;;;;;5010802;28;20046;-73
2021/03/03 08:33:38;;;;;;;50.45;31.45;;;6.50;89.80;;;;;;5010928;28;20048;-73
2021/03/03 08:36:06;;;;;;;53.58;34.55;;;6.50;88.80;;;;;;5011049;28;20096;-73
2021/03/03 08:38:32;;;;;;;51.60;32.22;;;6.50;89.10;;;;;;5010765;28;20049;-73
2021/03/03 08:41:16;;;;;;;53.85;33.17;;;6.40;89.20;;;;;;5011268;28;20109;-73
2021/03/03 08:43:43;;;;;;;;;;;6.50;89.30;;;;;;5011113;28;20046;-73
2021/03/03 08:46:21;;;;;;;50.28;31.17;;;6.40;89.20;;;;;;5010659;28;19924;-73
2021/03/03 08:48:53;;;;;;;47.42;30.15;;;6.40;89.20;;;;;;5011431;28;20081;-73
2021/03/03 08:51:29;;;;;;;51.80;34.08;;;6.50;89.50;;;;;;5010611;28;20054;-73
2021/03/03 08:53:56;;;;;;;53.05;32.28;;;6.50;89.80;;;;;;5010652;28;20034;-73
2021/03/03 08:56:38;;;;;;;52.85;33.30;;;6.50;89.90;;;;;;5010645;28;20438;-73
2021/03/03 08:59:08;;;;;;;53.08;32.50;;;6.60;90.10;;;;;;5009410;28;20493;-73
2021/03/03 09:02:07;;;;;;;53.58;35.00;;;6.60;90.10;;;;;;5009080;28;20125;-74
2021/03/03 09:04:38;;;;;;;52.47;32.88;;;6.70;90.10;;;;;;5011406;28;20057;-73
2021/03/03 09:07:13;;;;;;;58.67;35.40;;;6.80;89.90;;;;;;5010065;28;20122;-73
2021/03/03 09:09:49;;;;;;;53.20;34.17;;;6.90;90.00;;;;;;5010449;28;20046;-74
2021/03/03 09:12:17;;;;;;;53.55;34.33;;;7.10;89.60;;;;;;5010397;28;20042;-74
2021/03/03 09:14:44;;;;;;;51.63;33.95;;;7.30;88.70;;;;;;5010143;28;20042;-74
2021/03/03 09:17:15;;;;;;;52.60;36.00;;;7.40;88.80;;;;;;5010243;28;20048;-74
2021/03/03 09:19:42;;;;;;;50.88;31.20;;;7.50;88.20;;;;;;5010593;28;20052;-74
2021/03/03 09:22:22;;;;;;;52.47;32.10;;;7.40;87.70;;;;;;5010403;28;20068;-74
2021/03/03 09:24:50;;;;;;;54.45;33.67;;;7.50;87.70;;;;;;5010360;28;20038;-74
2021/03/03 09:27:16;;;;;;;50.38;32.78;;;7.60;87.90;;;;;;5010537;28;20080;-73
2021/03/03 09:29:42;;;;;;;44.72;31.10;;;7.60;87.60;;;;;;5009209;28;20042;-74
2021/03/03 09:32:08;;;;;;;52.20;33.40;;;7.70;87.80;;;;;;5009979;28;20390;-74
2021/03/03 09:34:42;;;;;;;48.65;33.58;;;7.80;87.70;;;;;;5009788;28;20042;-74
2021/03/03 09:37:07;;;;;;;50.63;33.75;;;7.90;87.50;;;;;;5010172;28;20053;-74
2021/03/03 09:39:34;;;;;;;51.83;33.58;;;8.00;87.30;;;;;;5009791;28;20042;-74
2021/03/03 09:42:05;;;;;;;49.28;31.73;;;8.00;86.80;;;;;;5009901;28;20059;-73
2021/03/03 09:44:52;;;;;;;49.03;32.58;;;8.10;86.40;;;;;;5009824;28;20069;-74
2021/03/03 09:47:33;;;;;;;51.22;34.83;;;8.20;86.50;;;;;;5010419;28;20046;-74
2021/03/03 09:50:01;;;;;;;51.20;31.48;;;8.30;86.80;;;;;;5010521;28;20049;-74
2021/03/03 09:52:35;;;;;;;47.30;31.95;;;8.30;86.20;;;;;;5010209;28;20038;-73
2021/03/03 09:55:00;;;;;;;46.97;32.50;;;8.40;86.30;;;;;;5009816;28;20042;-74
2021/03/03 09:57:26;;;;;;;48.20;32.85;;;8.40;85.90;;;;;;5009921;28;20045;-74
2021/03/03 09:59:55;;;;;;;54.95;33.05;;;8.50;85.80;;;;;;5011487;28;20030;-76
2021/03/03 10:02:24;;;;;;;47.97;32.50;;;8.50;85.90;;;;;;5012811;28;20069;-75
2021/03/03 10:04:51;;;;;;;46.95;31.85;;;8.60;85.90;;;;;;5011757;28;20049;-74
2021/03/03 10:07:22;;;;;;;49.30;31.90;;;8.60;85.30;;;;;;5024676;27;20045;-74
2021/03/03 10:09:59;;;;;;;50.00;33.85;;;8.60;85.40;;;;;;5032511;28;20057;-74
2021/03/03 10:12:36;;;;;;;45.28;32.53;;;8.60;85.80;;;;;;5032531;28;20049;-74
2021/03/03 10:15:08;;;;;;;49.95;34.05;;;8.70;85.50;;;;;;5031481;28;20037;-73
2021/03/03 10:17:47;;;;;;;50.03;34.85;;;8.70;85.50;;;;;;5032444;28;20450;-74
2021/03/03 10:20:47;;;;;;;47.67;32.63;;;8.70;85.50;;;;;;5032650;28;20044;-74
2021/03/03 10:23:19;;;;;;;49.17;33.65;;;8.70;85.50;;;;;;5031484;28;20044;-74
2021/03/03 10:25:48;;;;;;;48.35;34.28;;;8.80;85.80;;;;;;5031471;28;20554;-74
2021/03/03 10:28:18;;;;;;;49.03;33.22;;;8.80;86.00;;;;;;5032414;28;20045;-74
2021/03/03 10:30:46;;;;;;;53.00;32.92;;;8.80;85.60;;;;;;5032859;28;20038;-73
2021/03/03 10:33:32;;;;;;;52.33;34.53;;;8.90;85.70;;;;;;5032002;28;20044;-74
2021/03/03 10:36:15;;;;;;;47.65;34.47;;;8.90;85.70;;;;;;5032162;28;20050;-73
2021/03/03 10:38:55;;;;;;;48.28;33.58;;;8.90;85.70;;;;;;5032289;28;20490;-73
2021/03/03 10:41:33;;;;;;;49.03;32.63;;;8.90;85.70;;;;;;5032379;28;20049;-74
2021/03/03 10:44:00;;;;;;;57.97;34.13;;;9.00;85.30;;;;;;5032141;28;20034;-74
2021/03/03 10:46:26;;;;;;;45.92;32.75;;;9.00;85.40;;;;;;5031961;28;20116;-73
2021/03/03 10:48:54;;;;;;;51.85;35.70;;;9.00;85.50;;;;;;5032529;28;20046;-73
2021/03/03 10:51:33;;;;;;;48.55;35.08;;;9.10;85.90;;;;;;5031050;28;20049;-74
2021/03/03 10:53:59;;;;;;;52.53;33.78;;;9.20;85.50;;;;;;5032229;28;20418;-73
2021/03/03 10:56:29;;;;;;;48.13;34.33;;;9.20;85.60;;;;;;5032277;28;20068;-74
2021/03/03 10:59:03;;;;;;;46.88;32.13;;;9.30;85.70;;;;;;5031895;28;20390;-74
2021/03/03 11:02:02;;;;;;;49.40;34.65;;;9.30;85.20;;;;;;5030668;28;20436;-74
2021/03/03 11:04:44;;;;;;;53.17;32.33;;;9.30;85.30;;;;;;5031805;28;20447;-74
2021/03/03 11:07:17;;;;;;;48.17;35.33;;;9.20;85.30;;;;;;5031995;28;20500;-74
2021/03/03 11:09:52;;;;;;;53.53;35.67;;;9.20;85.60;;;;;;5032267;28;20509;-74
2021/03/03 11:12:23;;;;;;;51.67;33.63;;;9.20;85.90;;;;;;5030807;28;20048;-75
2021/03/03 11:14:49;;;;;;;49.58;34.88;;;9.10;85.70;;;;;;5031656;28;20055;-73
2021/03/03 11:17:15;;;;;;;51.55;35.05;;;9.10;86.00;;;;;;5031828;28;20038;-74
2021/03/03 11:19:40;;;;;;;50.03;34.38;;;9.00;85.80;;;;;;5031910;28;20435;-74
2021/03/03 11:22:06;;;;;;;52.78;35.17;;;9.10;85.80;;;;;;5031517;28;20041;-74
2021/03/03 11:24:32;;;;;;;55.72;37.13;;;8.80;85.80;;;;;;5031371;28;20521;-74
2021/03/03 11:26:58;;;;;;;48.53;35.05;;;8.60;86.30;;;;;;5031627;28;20474;-74
2021/03/03 11:29:24;;;;;;;55.85;35.97;;;8.50;86.90;;;;;;5031866;28;20037;-73
2021/03/03 11:31:49;;;;;;;53.33;35.08;;;8.50;87.10;;;;;;5032095;28;20041;-73
2021/03/03 11:34:15;;;;;;;55.17;36.30;;;8.50;87.00;;;;;;5031258;28;20048;-73
2021/03/03 11:36:41;;;;;;;50.42;34.83;;;8.40;87.20;;;;;;5031420;28;20037;-73
2021/03/03 11:39:08;;;;;;;52.30;34.72;;;8.20;87.60;;;;;;5031970;28;20396;-73
2021/03/03 11:41:34;;;;;;;54.53;35.80;;;8.20;87.60;;;;;;5031461;28;20406;-74
2021/03/03 11:44:00;;;;;;;52.42;33.63;;;8.10;87.80;;;;;;5029981;28;20083;-73
2021/03/03 11:46:26;;;;;;;53.42;34.55;;;8.10;88.00;;;;;;5031773;28;20470;-73
2021/03/03 11:48:51;;;;;;;49.60;32.92;;;8.00;88.40;;;;;;5030503;28;20053;-73
2021/03/03 11:51:17;;;;;;;51.30;33.60;;;8.00;88.30;;;;;;5031177;28;20112;-73
2021/03/03 11:53:43;;;;;;;50.85;32.17;;;7.80;88.70;;;;;;5031069;28;20048;-74
2021/03/03 11:56:09;;;;;;;49.72;34.47;;;8.00;88.80;;;;;;5030957;28;20037;-74
2021/03/03 11:58:35;;;;;;;50.50;33.95;;;8.00;88.10;;;;;;5031278;28;20553;-73
2021/03/03 12:01:01;;;;;;;47.00;32.42;;;8.10;88.40;;;;;;5031698;28;20049;-74
2021/03/03 12:03:26;;;;;;;42.03;30.98;;;8.20;87.80;;;;;;5030659;28;20037;-74
2021/03/03 12:05:52;;;;;;;41.38;28.58;;;8.30;87.10;;;;;;5030524;28;20453;-74
2021/03/03 12:08:18;;;;;;;41.60;28.90;;;8.40;86.30;;;;;;5030909;28;20457;-73
2021/03/03 12:10:44;;;;;;;40.13;28.67;;;8.50;85.50;;;;;;5030971;28;20037;-73
2021/03/03 12:13:09;;;;;;;37.13;28.05;;;8.40;85.00;;;;;;5030601;28;20485;-74
2021/03/03 12:15:35;;;;;;;36.30;26.95;;;8.50;84.80;;;;;;5030883;28;20037;-73
2021/03/03 12:18:01;;;;;;;43.60;28.02;;;8.40;84.60;;;;;;5030767;28;20050;-73
2021/03/03 12:20:28;;;;;;;39.65;28.13;;;8.40;84.20;;;;;;5031307;28;20553;-73
2021/03/03 12:22:57;;;;;;;42.05;28.70;;;8.30;84.60;;;;;;5030247;28;20068;-73
2021/03/03 12:25:24;;;;;;;41.05;28.20;;;8.40;84.20;;;;;;5030501;28;20042;-73
2021/03/03 12:27:50;;;;;;;36.65;28.67;;;8.40;84.20;;;;;;5030619;28;20057;-72
2021/03/03 12:30:17;;;;;;;41.30;30.13;;;8.20;83.90;;;;;;5030693;28;20126;-73
2021/03/03 12:32:42;;;;;;;39.90;28.13;;;8.10;84.10;;;;;;5030647;28;20040;-74
2021/03/03 12:35:09;;;;;;;41.78;29.20;;;8.00;84.00;;;;;;5030403;28;20034;-74
2021/03/03 12:37:35;;;;;;;39.95;28.40;;;8.00;84.90;;;;;;5030125;28;20037;-74
2021/03/03 12:40:01;;;;;;;45.80;30.85;;;7.90;85.30;;;;;;5029814;28;20045;-74
2021/03/03 12:42:27;;;;;;;46.10;30.38;;;7.80;85.70;;;;;;5030371;28;20048;-74
2021/03/03 12:44:53;;;;;;;43.72;31.00;;;7.80;85.80;;;;;;5030726;28;20033;-73
2021/03/03 12:47:18;;;;;;;43.85;31.90;;;7.80;85.90;;;;;;5030870;28;20090;-73
2021/03/03 12:49:44;;;;;;;42.00;28.80;;;7.60;85.60;;;;;;5031119;28;20120;-73